| time (UTC) | temp C | wind direction | speed KPH | gust KPH | rain 1hr cm | rain 24hr cm | rain mn cm | humidity % | barometer mb |
| 20260906084513 | 18 | 92 | 12.9 | 19.3 | 0.00 | 0.43 | 0.43 | 89 | 1011.8 |
| 20260906083013 | 19 | 347 | 3.2 | 17.7 | 0.00 | 0.43 | 0.43 | 88 | 1011.8 |
| 20260906081512 | 19 | 41 | 12.9 | 19.3 | 0.00 | 0.43 | 0.43 | 86 | 1011.7 |
| 20260906080010 | 18 | 98 | 11.3 | 24.1 | 0.00 | 0.43 | 0.43 | 92 | 1011.7 |
| 20260906074509 | 17 | 96 | 17.7 | 24.1 | 0.00 | 0.43 | 0.43 | 98 | 1011.8 |
| 20260906073007 | 17 | 57 | 16.1 | 24.1 | 0.03 | 0.43 | 0.43 | 99 | 1011.8 |
| 20260906071507 | 17 | 72 | 19.3 | 27.4 | 0.33 | 0.43 | 0.43 | 99 | 1011.6 |
| 20260906070006 | 17 | 42 | 14.5 | 25.7 | 0.43 | 0.43 | 0.43 | 99 | 1011.8 |
| 20260906064504 | 17 | 316 | 19.3 | 30.6 | 0.43 | 0.43 | 0.43 | 99 | 1011.5 |
| 20260906063001 | 17 | 115 | 20.9 | 37.0 | 0.41 | 0.41 | 0.41 | 98 | 1011.8 |
| 20260906061557 | 19 | 46 | 25.7 | 35.4 | 0.08 | 0.08 | 0.08 | 93 | 1011.9 |
| 20260906060055 | 20 | 107 | 11.3 | 19.3 | 0.00 | 0.00 | 0.00 | 89 | 1011.8 |
| 20260906054554 | 20 | 106 | 14.5 | 20.9 | 0.00 | 0.00 | 0.00 | 87 | 1011.8 |
| 20260906053053 | 20 | 84 | 16.1 | 22.5 | 0.00 | 0.00 | 0.00 | 90 | 1011.8 |
| 20260906051601 | 20 | 102 | 20.9 | 24.1 | 0.00 | 0.00 | 0.00 | 88 | 1011.8 |
| 20260906044553 | 20 | 74 | 12.9 | 22.5 | 0.00 | 0.00 | 0.00 | 91 | 1011.9 |
| 20260906043057 | 19 | 93 | 22.5 | 27.4 | 0.00 | 0.00 | 0.00 | 94 | 1011.8 |
| 20260906041547 | 20 | 93 | 27.4 | 35.4 | 0.00 | 0.00 | 0.00 | 92 | 1011.8 |
| 20260906040043 | 20 | 58 | 19.3 | 29.0 | 0.00 | 0.00 | 0.00 | 90 | 1011.8 |
| 20260906034604 | 20 | 102 | 8.0 | 14.5 | 0.00 | 0.00 | 0.00 | 91 | 1011.6 |
| 20260906033039 | 20 | 353 | 8.0 | 12.9 | 0.00 | 0.00 | 0.00 | 88 | 1011.5 |
| 20260906031545 | 20 | 23 | 6.4 | 14.5 | 0.00 | 0.00 | 0.00 | 88 | 1011.3 |
| 20260906030038 | 20 | 323 | 6.4 | 11.3 | 0.00 | 0.00 | 0.00 | 86 | 1011.2 |
| 20260906024536 | 21 | 347 | 6.4 | 11.3 | 0.00 | 0.00 | 0.00 | 84 | 1011.2 |
| 20260906023036 | 21 | 337 | 1.6 | 9.7 | 0.00 | 0.00 | 0.00 | 83 | 1011.3 |
| 20260906021538 | 21 | 14 | 4.8 | 17.7 | 0.00 | 0.00 | 0.00 | 82 | 1011.2 |
| 20260906020033 | 21 | 27 | 12.9 | 19.3 | 0.00 | 0.00 | 0.00 | 83 | 1011.3 |
| 20260906014532 | 21 | 21 | 6.4 | 12.9 | 0.00 | 0.00 | 0.00 | 79 | 1011.2 |
| 20260906013049 | 21 | 357 | 9.7 | 14.5 | 0.00 | 0.00 | 0.00 | 79 | 1011.0 |
| 20260906011529 | 21 | 319 | 8.0 | 12.9 | 0.00 | 0.00 | 0.00 | 78 | 1010.9 |
| 20260906010029 | 22 | 330 | 8.0 | 12.9 | 0.00 | 0.00 | 0.00 | 75 | 1010.7 |
| 20260906004526 | 22 | 331 | 4.8 | 9.7 | 0.00 | 0.00 | 0.00 | 75 | 1010.5 |
| 20260906003024 | 23 | 327 | 8.0 | 12.9 | 0.00 | 0.00 | 0.00 | 73 | 1010.4 |
| 20260906001523 | 23 | 7 | 6.4 | 11.3 | 0.00 | 0.00 | 0.00 | 72 | 1010.2 |
| 20260906000022 | 23 | 321 | 6.4 | 14.5 | 0.00 | 0.00 | 0.00 | 71 | 1010.0 |
| 20260905234520 | 23 | 3 | 3.2 | 11.3 | 0.00 | 0.00 | 0.00 | 68 | 1009.9 |
| 20260905233020 | 24 | 15 | 9.7 | 16.1 | 0.00 | 0.00 | 0.00 | 66 | 1009.9 |
| 20260905231526 | 24 | 348 | 8.0 | 17.7 | 0.00 | 0.00 | 0.00 | 65 | 1009.8 |
| 20260905230023 | 25 | 12 | 4.8 | 9.7 | 0.00 | 0.00 | 0.00 | 63 | 1009.6 |
| 20260905224518 | 25 | 45 | 6.4 | 14.5 | 0.00 | 0.00 | 0.00 | 61 | 1009.6 |
| 20260905223018 | 25 | 33 | 9.7 | 16.1 | 0.00 | 0.00 | 0.00 | 62 | 1009.4 |
| 20260905221517 | 25 | 48 | 17.7 | 22.5 | 0.00 | 0.00 | 0.00 | 66 | 1009.3 |
| 20260905220016 | 25 | 36 | 11.3 | 22.5 | 0.00 | 0.00 | 0.00 | 61 | 1009.2 |
| 20260905214517 | 25 | 252 | 9.7 | 19.3 | 0.00 | 0.00 | 0.00 | 62 | 1009.2 |
| 20260905213019 | 25 | 287 | 9.7 | 24.1 | 0.00 | 0.00 | 0.00 | 62 | 1009.1 |
| 20260905211517 | 25 | 267 | 11.3 | 17.7 | 0.00 | 0.00 | 0.00 | 61 | 1009.0 |
| 20260905210013 | 26 | 13 | 11.3 | 19.3 | 0.00 | 0.00 | 0.00 | 58 | 1008.9 |
| 20260905204513 | 26 | 302 | 9.7 | 25.7 | 0.00 | 0.00 | 0.00 | 59 | 1008.8 |
| 20260905203012 | 26 | 301 | 11.3 | 22.5 | 0.00 | 0.00 | 0.00 | 60 | 1008.7 |
| 20260905201511 | 26 | 30 | 6.4 | 17.7 | 0.00 | 0.00 | 0.00 | 59 | 1008.7 |
| 20260905200009 | 26 | 348 | 11.3 | 24.1 | 0.00 | 0.00 | 0.00 | 59 | 1008.8 |
| 20260905194506 | 26 | 293 | 8.0 | 20.9 | 0.00 | 0.00 | 0.00 | 62 | 1008.7 |
| 20260905193005 | 25 | 323 | 4.8 | 19.3 | 0.00 | 0.00 | 0.00 | 60 | 1008.8 |
| 20260905191503 | 25 | 333 | 11.3 | 24.1 | 0.00 | 0.00 | 0.00 | 60 | 1008.8 |
| 20260905190100 | 25 | 300 | 4.8 | 20.9 | 0.00 | 0.00 | 0.00 | 64 | 1008.9 |
| 20260905184602 | 25 | 301 | 14.5 | 24.1 | 0.00 | 0.00 | 0.00 | 65 | 1008.9 |
| 20260905183057 | 25 | 316 | 14.5 | 27.4 | 0.00 | 0.00 | 0.00 | 64 | 1009.1 |
| 20260905181557 | 25 | 268 | 12.9 | 25.7 | 0.00 | 0.00 | 0.00 | 62 | 1009.1 |
| 20260905180056 | 25 | 297 | 9.7 | 24.1 | 0.00 | 0.00 | 0.00 | 63 | 1009.3 |
| 20260905174556 | 25 | 250 | 14.5 | 25.7 | 0.00 | 0.00 | 0.00 | 64 | 1009.2 |
| 20260905173052 | 24 | 281 | 8.0 | 27.4 | 0.00 | 0.00 | 0.00 | 65 | 1009.4 |
| 20260905171610 | 24 | 260 | 12.9 | 25.7 | 0.00 | 0.00 | 0.00 | 66 | 1009.5 |
| 20260905170101 | 24 | 294 | 9.7 | 27.4 | 0.00 | 0.00 | 0.00 | 66 | 1009.5 |
| 20260905164551 | 24 | 203 | 12.9 | 22.5 | 0.00 | 0.00 | 0.00 | 68 | 1009.7 |
| 20260905163053 | 24 | 326 | 12.9 | 24.1 | 0.00 | 0.00 | 0.00 | 67 | 1009.7 |
| 20260905161545 | 23 | 250 | 20.9 | 37.0 | 0.00 | 0.00 | 0.00 | 67 | 1009.5 |
| 20260905160042 | 23 | 305 | 19.3 | 32.2 | 0.00 | 0.00 | 0.00 | 68 | 1009.5 |
| 20260905154554 | 23 | 303 | 17.7 | 24.1 | 0.00 | 0.00 | 0.00 | 66 | 1009.6 |
| 20260905153038 | 23 | 316 | 22.5 | 32.2 | 0.00 | 0.00 | 0.00 | 68 | 1009.4 |
| 20260905151538 | 23 | 285 | 17.7 | 27.4 | 0.00 | 0.00 | 0.00 | 71 | 1009.5 |
| 20260905150042 | 22 | 321 | 17.7 | 27.4 | 0.00 | 0.00 | 0.00 | 69 | 1009.8 |
| 20260905144538 | 23 | 275 | 12.9 | 20.9 | 0.00 | 0.00 | 0.00 | 72 | 1009.7 |
| 20260905143034 | 22 | 336 | 16.1 | 25.7 | 0.00 | 0.00 | 0.00 | 72 | 1009.6 |
| 20260905141535 | 22 | 289 | 11.3 | 22.5 | 0.00 | 0.00 | 0.00 | 76 | 1009.6 |
| 20260905140032 | 22 | 274 | 14.5 | 24.1 | 0.00 | 0.00 | 0.00 | 76 | 1009.6 |
| 20260905134531 | 22 | 328 | 19.3 | 29.0 | 0.00 | 0.00 | 0.00 | 76 | 1009.7 |
| 20260905133030 | 22 | 327 | 12.9 | 19.3 | 0.00 | 0.00 | 0.00 | 76 | 1009.7 |
| 20260905131536 | 22 | 303 | 4.8 | 12.9 | 0.00 | 0.00 | 0.00 | 76 | 1009.7 |
| 20260905130029 | 21 | 323 | 8.0 | 17.7 | 0.00 | 0.00 | 0.00 | 76 | 1009.9 |
| 20260905124529 | 23 | 309 | 3.2 | 8.0 | 0.00 | 0.00 | 0.00 | 73 | 1009.9 |
| 20260905123035 | 22 | 24 | 0.0 | 0.0 | 0.00 | 0.00 | 0.00 | 77 | 1010.1 |
| 20260905121530 | 22 | 84 | 0.0 | 0.0 | 0.00 | 0.00 | 0.00 | 76 | 1010.1 |
| 20260905120026 | 21 | 292 | 0.0 | 0.0 | 0.00 | 0.00 | 0.00 | 76 | 1010.0 |
| 20260905114522 | 21 | 310 | 0.0 | 0.0 | 0.00 | 0.00 | 0.00 | 78 | 1009.9 |
| 20260905113023 | 20 | 284 | 0.0 | 0.0 | 0.00 | 0.00 | 0.00 | 81 | 1009.7 |
| 20260905111522 | 20 | 276 | 0.0 | 0.0 | 0.00 | 0.00 | 0.00 | 82 | 1009.5 |
| 20260905110019 | 19 | 264 | 0.0 | 0.0 | 0.00 | 0.00 | 0.00 | 86 | 1009.3 |
| 20260905104520 | 18 | 276 | 1.6 | 4.8 | 0.00 | 0.00 | 0.00 | 88 | 1009.1 |
| 20260905103021 | 18 | 264 | 0.0 | 4.8 | 0.00 | 0.00 | 0.00 | 87 | 1009.2 |
| 20260905101516 | 18 | 270 | 3.2 | 6.4 | 0.00 | 0.00 | 0.00 | 87 | 1009.1 |
| 20260905100019 | 19 | 264 | 3.2 | 11.3 | 0.00 | 0.00 | 0.00 | 87 | 1008.9 |
| 20260905094513 | 19 | 264 | 3.2 | 8.0 | 0.00 | 0.00 | 0.00 | 86 | 1008.9 |
| 20260905093131 | 19 | 276 | 3.2 | 11.3 | 0.00 | 0.00 | 0.00 | 85 | 1008.7 |
| 20260905091508 | 20 | 304 | 6.4 | 11.3 | 0.00 | 0.00 | 0.00 | 84 | 1008.8 |
| 20260905090008 | 20 | 271 | 9.7 | 16.1 | 0.00 | 0.00 | 0.00 | 84 | 1008.8 |